sensor_id;sensor_type;location;lat;lon;timestamp;P1;durP1;ratioP1;P2;durP2;ratioP2
16387;SDS011;8303;53.446;9.988;2022-08-21T04:46:39;9.83;;;6.93;;
16387;SDS011;8303;53.446;9.988;2022-08-21T04:49:06;8.97;;;8.07;;
16387;SDS011;8303;53.446;9.988;2022-08-21T04:51:33;11.10;;;8.70;;
16387;SDS011;8303;53.446;9.988;2022-08-21T04:54:05;10.43;;;9.27;;
16387;SDS011;8303;53.446;9.988;2022-08-21T04:56:36;10.30;;;9.30;;
16387;SDS011;8303;53.446;9.988;2022-08-21T04:59:06;11.20;;;9.90;;
16387;SDS011;8303;53.446;9.988;2022-08-21T05:01:40;11.37;;;10.47;;
16387;SDS011;8303;53.446;9.988;2022-08-21T05:04:08;12.83;;;11.10;;
16387;SDS011;8303;53.446;9.988;2022-08-21T05:06:38;12.23;;;9.60;;
16387;SDS011;8303;53.446;9.988;2022-08-21T05:09:07;15.10;;;10.03;;
16387;SDS011;8303;53.446;9.988;2022-08-21T05:11:35;11.10;;;8.93;;
16387;SDS011;8303;53.446;9.988;2022-08-21T05:14:03;9.17;;;8.27;;
16387;SDS011;8303;53.446;9.988;2022-08-21T05:16:30;7.20;;;6.50;;
16387;SDS011;8303;53.446;9.988;2022-08-21T05:18:58;8.37;;;4.80;;
16387;SDS011;8303;53.446;9.988;2022-08-21T05:21:25;6.20;;;4.23;;
16387;SDS011;8303;53.446;9.988;2022-08-21T05:23:52;7.17;;;4.00;;
16387;SDS011;8303;53.446;9.988;2022-08-21T05:26:18;5.03;;;4.20;;
16387;SDS011;8303;53.446;9.988;2022-08-21T05:28:45;4.70;;;3.50;;
16387;SDS011;8303;53.446;9.988;2022-08-21T05:31:12;4.77;;;3.57;;
16387;SDS011;8303;53.446;9.988;2022-08-21T05:33:39;7.30;;;3.60;;
16387;SDS011;8303;53.446;9.988;2022-08-21T05:36:07;8.50;;;4.03;;
16387;SDS011;8303;53.446;9.988;2022-08-21T05:38:34;6.27;;;3.80;;
16387;SDS011;8303;53.446;9.988;2022-08-21T05:41:01;5.03;;;3.43;;
16387;SDS011;8303;53.446;9.988;2022-08-21T05:43:28;4.60;;;3.30;;
16387;SDS011;8303;53.446;9.988;2022-08-21T05:45:54;4.73;;;3.83;;
16387;SDS011;8303;53.446;9.988;2022-08-21T05:48:22;6.13;;;3.60;;
16387;SDS011;8303;53.446;9.988;2022-08-21T05:50:51;4.00;;;3.27;;
16387;SDS011;8303;53.446;9.988;2022-08-21T05:53:21;5.17;;;4.10;;
16387;SDS011;8303;53.446;9.988;2022-08-21T05:55:49;5.70;;;3.57;;
16387;SDS011;8303;53.446;9.988;2022-08-21T05:58:17;5.33;;;3.00;;
16387;SDS011;8303;53.446;9.988;2022-08-21T06:00:45;5.47;;;3.30;;
16387;SDS011;8303;53.446;9.988;2022-08-21T06:03:14;5.70;;;3.83;;
16387;SDS011;8303;53.446;9.988;2022-08-21T06:05:47;5.80;;;3.37;;
16387;SDS011;8303;53.446;9.988;2022-08-21T06:08:14;4.80;;;3.50;;
16387;SDS011;8303;53.446;9.988;2022-08-21T06:10:43;4.83;;;3.40;;
16387;SDS011;8303;53.446;9.988;2022-08-21T06:13:10;4.17;;;3.30;;
16387;SDS011;8303;53.446;9.988;2022-08-21T06:15:37;7.53;;;3.27;;
16387;SDS011;8303;53.446;9.988;2022-08-21T06:18:04;6.40;;;3.50;;
16387;SDS011;8303;53.446;9.988;2022-08-21T06:20:31;6.33;;;4.10;;
16387;SDS011;8303;53.446;9.988;2022-08-21T06:22:58;8.37;;;3.40;;
16387;SDS011;8303;53.446;9.988;2022-08-21T06:25:26;4.37;;;3.90;;
16387;SDS011;8303;53.446;9.988;2022-08-21T06:27:59;7.63;;;3.60;;
16387;SDS011;8303;53.446;9.988;2022-08-21T06:30:27;8.27;;;4.43;;
16387;SDS011;8303;53.446;9.988;2022-08-21T06:32:54;6.67;;;3.60;;
16387;SDS011;8303;53.446;9.988;2022-08-21T06:35:21;6.80;;;3.47;;
16387;SDS011;8303;53.446;9.988;2022-08-21T06:37:49;5.23;;;3.67;;
16387;SDS011;8303;53.446;9.988;2022-08-21T06:40:16;5.47;;;3.47;;
16387;SDS011;8303;53.446;9.988;2022-08-21T06:42:43;7.63;;;3.73;;
16387;SDS011;8303;53.446;9.988;2022-08-21T06:45:11;7.53;;;2.87;;
16387;SDS011;8303;53.446;9.988;2022-08-21T06:47:38;5.10;;;2.83;;
16387;SDS011;8303;53.446;9.988;2022-08-21T06:50:05;7.13;;;3.37;;
16387;SDS011;8303;53.446;9.988;2022-08-21T06:52:33;4.30;;;2.97;;
16387;SDS011;8303;53.446;9.988;2022-08-21T06:55:00;5.63;;;3.20;;
16387;SDS011;8303;53.446;9.988;2022-08-21T06:57:27;5.70;;;3.53;;
16387;SDS011;8303;53.446;9.988;2022-08-21T06:59:54;3.20;;;2.90;;
16387;SDS011;8303;53.446;9.988;2022-08-21T07:02:22;5.35;;;2.90;;
16387;SDS011;8303;53.446;9.988;2022-08-21T07:04:49;4.65;;;3.10;;
16387;SDS011;8303;53.446;9.988;2022-08-21T07:07:15;7.20;;;3.00;;
16387;SDS011;8303;53.446;9.988;2022-08-21T07:09:43;4.10;;;2.83;;
16387;SDS011;8303;53.446;9.988;2022-08-21T07:12:10;3.07;;;2.77;;
16387;SDS011;8303;53.446;9.988;2022-08-21T07:14:36;4.80;;;2.83;;
16387;SDS011;8303;53.446;9.988;2022-08-21T07:17:03;6.97;;;2.93;;
16387;SDS011;8303;53.446;9.988;2022-08-21T07:19:31;4.83;;;2.70;;
16387;SDS011;8303;53.446;9.988;2022-08-21T07:21:59;6.10;;;3.20;;
16387;SDS011;8303;53.446;9.988;2022-08-21T07:24:27;8.33;;;2.70;;
16387;SDS011;8303;53.446;9.988;2022-08-21T07:26:54;4.18;;;2.75;;
16387;SDS011;8303;53.446;9.988;2022-08-21T07:29:21;6.35;;;2.85;;
16387;SDS011;8303;53.446;9.988;2022-08-21T07:31:48;4.80;;;2.90;;
16387;SDS011;8303;53.446;9.988;2022-08-21T07:34:15;5.97;;;2.78;;
16387;SDS011;8303;53.446;9.988;2022-08-21T07:36:43;4.88;;;2.80;;
16387;SDS011;8303;53.446;9.988;2022-08-21T07:39:11;4.57;;;2.40;;
16387;SDS011;8303;53.446;9.988;2022-08-21T07:41:38;7.15;;;3.08;;
16387;SDS011;8303;53.446;9.988;2022-08-21T07:44:05;4.03;;;2.92;;
16387;SDS011;8303;53.446;9.988;2022-08-21T07:46:31;5.25;;;2.97;;
16387;SDS011;8303;53.446;9.988;2022-08-21T07:48:58;7.03;;;3.08;;
16387;SDS011;8303;53.446;9.988;2022-08-21T07:51:26;5.07;;;3.13;;
16387;SDS011;8303;53.446;9.988;2022-08-21T07:53:56;7.03;;;2.50;;
16387;SDS011;8303;53.446;9.988;2022-08-21T07:56:24;6.85;;;3.03;;
16387;SDS011;8303;53.446;9.988;2022-08-21T07:58:51;7.72;;;2.83;;
16387;SDS011;8303;53.446;9.988;2022-08-21T08:01:19;4.20;;;2.80;;
16387;SDS011;8303;53.446;9.988;2022-08-21T08:03:46;5.85;;;2.70;;
16387;SDS011;8303;53.446;9.988;2022-08-21T08:06:13;5.07;;;3.22;;
16387;SDS011;8303;53.446;9.988;2022-08-21T08:08:41;5.38;;;2.70;;
16387;SDS011;8303;53.446;9.988;2022-08-21T08:11:10;7.72;;;6.72;;
16387;SDS011;8303;53.446;9.988;2022-08-21T08:13:40;6.68;;;2.88;;
16387;SDS011;8303;53.446;9.988;2022-08-21T08:16:09;3.85;;;2.65;;
16387;SDS011;8303;53.446;9.988;2022-08-21T08:18:36;5.75;;;2.72;;
16387;SDS011;8303;53.446;9.988;2022-08-21T08:21:03;5.95;;;3.13;;
16387;SDS011;8303;53.446;9.988;2022-08-21T08:23:31;3.25;;;2.55;;
16387;SDS011;8303;53.446;9.988;2022-08-21T08:25:58;5.47;;;2.95;;
16387;SDS011;8303;53.446;9.988;2022-08-21T08:28:26;6.22;;;2.72;;
16387;SDS011;8303;53.446;9.988;2022-08-21T08:30:53;7.38;;;3.08;;
16387;SDS011;8303;53.446;9.988;2022-08-21T08:33:20;7.93;;;2.95;;
16387;SDS011;8303;53.446;9.988;2022-08-21T08:35:48;8.77;;;3.60;;
16387;SDS011;8303;53.446;9.988;2022-08-21T08:38:16;8.55;;;3.53;;
16387;SDS011;8303;53.446;9.988;2022-08-21T08:40:45;7.85;;;2.75;;
16387;SDS011;8303;53.446;9.988;2022-08-21T08:43:16;5.97;;;3.08;;
16387;SDS011;8303;53.446;9.988;2022-08-21T08:45:45;6.45;;;3.17;;
16387;SDS011;8303;53.446;9.988;2022-08-21T08:48:17;6.18;;;3.10;;
16387;SDS011;8303;53.446;9.988;2022-08-21T08:50:58;7.18;;;3.50;;
16387;SDS011;8303;53.446;9.988;2022-08-21T08:53:28;6.95;;;3.08;;
16387;SDS011;8303;53.446;9.988;2022-08-21T08:55:58;8.05;;;3.20;;
16387;SDS011;8303;53.446;9.988;2022-08-21T08:58:28;6.53;;;3.13;;
16387;SDS011;8303;53.446;9.988;2022-08-21T09:00:59;5.90;;;3.10;;
16387;SDS011;8303;53.446;9.988;2022-08-21T09:03:26;4.13;;;3.00;;
16387;SDS011;8303;53.446;9.988;2022-08-21T09:05:54;7.55;;;3.47;;
16387;SDS011;8303;53.446;9.988;2022-08-21T09:08:28;6.75;;;3.40;;
16387;SDS011;8303;53.446;9.988;2022-08-21T09:11:09;7.25;;;3.63;;
16387;SDS011;8303;53.446;9.988;2022-08-21T09:13:44;8.20;;;3.22;;
16387;SDS011;8303;53.446;9.988;2022-08-21T09:16:24;8.80;;;4.25;;
16387;SDS011;8303;53.446;9.988;2022-08-21T09:19:03;6.43;;;3.72;;
16387;SDS011;8303;53.446;9.988;2022-08-21T09:21:38;8.63;;;4.15;;
16387;SDS011;8303;53.446;9.988;2022-08-21T09:24:18;7.38;;;3.40;;
16387;SDS011;8303;53.446;9.988;2022-08-21T09:26:54;8.73;;;4.05;;
16387;SDS011;8303;53.446;9.988;2022-08-21T09:29:35;5.72;;;3.75;;
16387;SDS011;8303;53.446;9.988;2022-08-21T09:32:10;6.78;;;3.40;;
16387;SDS011;8303;53.446;9.988;2022-08-21T09:34:39;5.10;;;4.60;;
16387;SDS011;8303;53.446;9.988;2022-08-21T09:37:14;8.60;;;4.30;;
16387;SDS011;8303;53.446;9.988;2022-08-21T09:39:43;9.05;;;4.22;;
16387;SDS011;8303;53.446;9.988;2022-08-21T09:42:10;7.93;;;4.10;;
16387;SDS011;8303;53.446;9.988;2022-08-21T09:44:38;6.40;;;4.28;;
16387;SDS011;8303;53.446;9.988;2022-08-21T09:47:10;6.20;;;4.20;;
16387;SDS011;8303;53.446;9.988;2022-08-21T09:49:39;7.57;;;5.80;;
16387;SDS011;8303;53.446;9.988;2022-08-21T09:52:13;8.18;;;4.68;;
16387;SDS011;8303;53.446;9.988;2022-08-21T09:54:43;8.65;;;5.10;;
16387;SDS011;8303;53.446;9.988;2022-08-21T09:57:12;11.68;;;4.82;;
16387;SDS011;8303;53.446;9.988;2022-08-21T10:00:10;9.43;;;5.65;;
16387;SDS011;8303;53.446;9.988;2022-08-21T10:02:43;8.43;;;5.72;;
16387;SDS011;8303;53.446;9.988;2022-08-21T10:05:15;7.22;;;5.35;;
16387;SDS011;8303;53.446;9.988;2022-08-21T10:07:43;6.68;;;5.97;;
16387;SDS011;8303;53.446;9.988;2022-08-21T10:10:14;8.35;;;5.03;;
16387;SDS011;8303;53.446;9.988;2022-08-21T10:12:45;5.43;;;4.65;;
16387;SDS011;8303;53.446;9.988;2022-08-21T10:15:22;7.13;;;5.97;;
16387;SDS011;8303;53.446;9.988;2022-08-21T10:17:57;12.35;;;6.15;;
16387;SDS011;8303;53.446;9.988;2022-08-21T10:20:34;6.20;;;5.50;;
16387;SDS011;8303;53.446;9.988;2022-08-21T10:23:08;8.68;;;6.07;;
16387;SDS011;8303;53.446;9.988;2022-08-21T10:25:48;9.55;;;6.80;;
16387;SDS011;8303;53.446;9.988;2022-08-21T10:28:20;7.75;;;6.13;;
16387;SDS011;8303;53.446;9.988;2022-08-21T10:30:56;6.45;;;6.03;;
16387;SDS011;8303;53.446;9.988;2022-08-21T10:33:42;7.50;;;5.82;;
16387;SDS011;8303;53.446;9.988;2022-08-21T10:36:20;6.70;;;6.10;;
16387;SDS011;8303;53.446;9.988;2022-08-21T10:38:59;9.63;;;8.70;;
16387;SDS011;8303;53.446;9.988;2022-08-21T10:41:41;8.50;;;6.75;;
16387;SDS011;8303;53.446;9.988;2022-08-21T10:44:30;10.95;;;9.75;;
16387;SDS011;8303;53.446;9.988;2022-08-21T10:47:04;13.20;;;11.95;;
16387;SDS011;8303;53.446;9.988;2022-08-21T10:49:39;14.52;;;13.63;;
16387;SDS011;8303;53.446;9.988;2022-08-21T10:52:17;18.33;;;17.23;;
16387;SDS011;8303;53.446;9.988;2022-08-21T10:55:00;18.77;;;17.42;;
16387;SDS011;8303;53.446;9.988;2022-08-21T10:57:33;20.55;;;19.33;;
16387;SDS011;8303;53.446;9.988;2022-08-21T11:00:07;18.80;;;17.58;;
16387;SDS011;8303;53.446;9.988;2022-08-21T11:02:38;20.38;;;19.08;;
16387;SDS011;8303;53.446;9.988;2022-08-21T11:05:12;19.35;;;18.23;;
16387;SDS011;8303;53.446;9.988;2022-08-21T11:07:44;22.77;;;21.42;;
16387;SDS011;8303;53.446;9.988;2022-08-21T11:10:16;21.77;;;20.52;;
16387;SDS011;8303;53.446;9.988;2022-08-21T11:12:48;21.83;;;20.38;;
16387;SDS011;8303;53.446;9.988;2022-08-21T11:15:30;37.47;;;35.17;;
16387;SDS011;8303;53.446;9.988;2022-08-21T11:18:03;47.08;;;44.35;;
16387;SDS011;8303;53.446;9.988;2022-08-21T11:20:42;38.15;;;35.65;;
16387;SDS011;8303;53.446;9.988;2022-08-21T11:23:17;40.72;;;38.33;;
16387;SDS011;8303;53.446;9.988;2022-08-21T11:25:50;39.05;;;36.75;;
16387;SDS011;8303;53.446;9.988;2022-08-21T11:28:22;41.05;;;38.60;;
16387;SDS011;8303;53.446;9.988;2022-08-21T11:30:54;35.10;;;33.10;;
16387;SDS011;8303;53.446;9.988;2022-08-21T11:33:34;47.45;;;44.75;;
16387;SDS011;8303;53.446;9.988;2022-08-21T11:36:15;37.95;;;35.70;;
16387;SDS011;8303;53.446;9.988;2022-08-21T11:38:51;48.08;;;45.35;;
16387;SDS011;8303;53.446;9.988;2022-08-21T11:41:26;49.78;;;46.67;;
16387;SDS011;8303;53.446;9.988;2022-08-21T11:43:58;53.15;;;49.92;;
16387;SDS011;8303;53.446;9.988;2022-08-21T11:46:36;42.67;;;40.28;;
16387;SDS011;8303;53.446;9.988;2022-08-21T11:49:15;38.72;;;36.53;;
16387;SDS011;8303;53.446;9.988;2022-08-21T11:51:52;30.15;;;28.00;;
16387;SDS011;8303;53.446;9.988;2022-08-21T11:54:26;35.45;;;33.28;;
16387;SDS011;8303;53.446;9.988;2022-08-21T11:56:58;25.13;;;23.63;;
16387;SDS011;8303;53.446;9.988;2022-08-21T11:59:31;25.05;;;23.40;;
16387;SDS011;8303;53.446;9.988;2022-08-21T12:02:02;23.75;;;22.17;;
16387;SDS011;8303;53.446;9.988;2022-08-21T12:04:42;28.52;;;26.73;;
16387;SDS011;8303;53.446;9.988;2022-08-21T12:07:15;25.52;;;24.00;;
16387;SDS011;8303;53.446;9.988;2022-08-21T12:09:52;45.53;;;42.88;;
16387;SDS011;8303;53.446;9.988;2022-08-21T12:12:25;42.03;;;39.63;;
16387;SDS011;8303;53.446;9.988;2022-08-21T12:15:04;50.15;;;47.25;;
16387;SDS011;8303;53.446;9.988;2022-08-21T12:17:40;37.00;;;34.70;;
16387;SDS011;8303;53.446;9.988;2022-08-21T12:20:22;31.83;;;29.95;;
16387;SDS011;8303;53.446;9.988;2022-08-21T12:23:03;26.80;;;25.20;;
16387;SDS011;8303;53.446;9.988;2022-08-21T12:25:41;25.35;;;23.70;;
16387;SDS011;8303;53.446;9.988;2022-08-21T12:28:11;26.27;;;24.77;;
16387;SDS011;8303;53.446;9.988;2022-08-21T12:30:40;27.67;;;25.80;;
16387;SDS011;8303;53.446;9.988;2022-08-21T12:33:18;28.98;;;27.27;;
16387;SDS011;8303;53.446;9.988;2022-08-21T12:35:48;31.10;;;29.20;;
16387;SDS011;8303;53.446;9.988;2022-08-21T12:38:19;21.90;;;20.60;;
16387;SDS011;8303;53.446;9.988;2022-08-21T12:40:49;24.58;;;22.98;;
16387;SDS011;8303;53.446;9.988;2022-08-21T12:43:21;24.38;;;22.67;;
16387;SDS011;8303;53.446;9.988;2022-08-21T12:45:54;23.90;;;22.30;;
16387;SDS011;8303;53.446;9.988;2022-08-21T12:48:23;42.67;;;39.97;;
16387;SDS011;8303;53.446;9.988;2022-08-21T12:50:55;38.90;;;36.70;;
16387;SDS011;8303;53.446;9.988;2022-08-21T12:53:28;40.83;;;38.42;;
16387;SDS011;8303;53.446;9.988;2022-08-21T12:56:01;45.20;;;42.65;;
16387;SDS011;8303;53.446;9.988;2022-08-21T12:58:29;55.97;;;52.75;;
16387;SDS011;8303;53.446;9.988;2022-08-21T13:00:59;52.00;;;49.03;;
16387;SDS011;8303;53.446;9.988;2022-08-21T13:03:28;48.60;;;45.70;;
16387;SDS011;8303;53.446;9.988;2022-08-21T13:05:57;51.60;;;48.70;;
16387;SDS011;8303;53.446;9.988;2022-08-21T13:08:24;56.30;;;51.85;;
16387;SDS011;8303;53.446;9.988;2022-08-21T13:10:56;53.13;;;50.28;;
16387;SDS011;8303;53.446;9.988;2022-08-21T13:13:27;50.38;;;47.47;;
16387;SDS011;8303;53.446;9.988;2022-08-21T13:15:59;51.03;;;48.33;;
16387;SDS011;8303;53.446;9.988;2022-08-21T13:18:31;49.50;;;46.78;;
16387;SDS011;8303;53.446;9.988;2022-08-21T13:21:04;63.78;;;60.40;;
16387;SDS011;8303;53.446;9.988;2022-08-21T13:23:34;57.08;;;53.72;;
16387;SDS011;8303;53.446;9.988;2022-08-21T13:26:11;58.28;;;55.08;;
16387;SDS011;8303;53.446;9.988;2022-08-21T13:28:39;51.95;;;49.03;;
16387;SDS011;8303;53.446;9.988;2022-08-21T13:31:06;39.72;;;37.22;;
16387;SDS011;8303;53.446;9.988;2022-08-21T13:33:36;44.53;;;42.10;;
16387;SDS011;8303;53.446;9.988;2022-08-21T13:36:07;45.47;;;42.97;;
16387;SDS011;8303;53.446;9.988;2022-08-21T13:38:39;37.38;;;35.20;;
16387;SDS011;8303;53.446;9.988;2022-08-21T13:41:10;39.30;;;36.85;;
16387;SDS011;8303;53.446;9.988;2022-08-21T13:43:46;47.22;;;43.83;;
16387;SDS011;8303;53.446;9.988;2022-08-21T13:46:15;48.38;;;45.60;;
16387;SDS011;8303;53.446;9.988;2022-08-21T13:48:47;49.20;;;46.40;;
16387;SDS011;8303;53.446;9.988;2022-08-21T13:51:14;53.72;;;50.67;;
16387;SDS011;8303;53.446;9.988;2022-08-21T13:53:46;55.25;;;52.25;;
16387;SDS011;8303;53.446;9.988;2022-08-21T13:56:23;47.45;;;44.85;;
16387;SDS011;8303;53.446;9.988;2022-08-21T13:58:52;63.85;;;60.30;;
16387;SDS011;8303;53.446;9.988;2022-08-21T14:01:21;58.40;;;55.15;;
16387;SDS011;8303;53.446;9.988;2022-08-21T14:03:52;51.90;;;48.30;;
16387;SDS011;8303;53.446;9.988;2022-08-21T14:06:24;52.88;;;49.97;;
16387;SDS011;8303;53.446;9.988;2022-08-21T14:08:55;52.08;;;49.13;;
16387;SDS011;8303;53.446;9.988;2022-08-21T14:11:24;88.70;;;83.85;;
16387;SDS011;8303;53.446;9.988;2022-08-21T14:13:56;71.25;;;67.32;;
16387;SDS011;8303;53.446;9.988;2022-08-21T14:16:26;51.88;;;48.92;;
16387;SDS011;8303;53.446;9.988;2022-08-21T14:19:07;89.60;;;84.90;;
16387;SDS011;8303;53.446;9.988;2022-08-21T14:21:38;94.40;;;89.47;;
16387;SDS011;8303;53.446;9.988;2022-08-21T14:24:11;80.35;;;76.10;;
16387;SDS011;8303;53.446;9.988;2022-08-21T14:26:44;78.57;;;74.38;;
16387;SDS011;8303;53.446;9.988;2022-08-21T14:29:15;82.72;;;78.13;;
16387;SDS011;8303;53.446;9.988;2022-08-21T14:31:43;81.00;;;76.68;;
16387;SDS011;8303;53.446;9.988;2022-08-21T14:34:16;71.13;;;67.32;;
16387;SDS011;8303;53.446;9.988;2022-08-21T14:36:43;110.22;;;104.45;;
16387;SDS011;8303;53.446;9.988;2022-08-21T14:39:11;59.08;;;55.85;;
16387;SDS011;8303;53.446;9.988;2022-08-21T14:41:39;60.40;;;57.10;;
16387;SDS011;8303;53.446;9.988;2022-08-21T14:44:07;57.83;;;54.50;;
16387;SDS011;8303;53.446;9.988;2022-08-21T14:46:35;65.55;;;61.90;;
16387;SDS011;8303;53.446;9.988;2022-08-21T14:49:02;40.63;;;38.17;;
16387;SDS011;8303;53.446;9.988;2022-08-21T14:51:29;59.38;;;56.03;;
16387;SDS011;8303;53.446;9.988;2022-08-21T14:53:56;98.55;;;93.47;;
16387;SDS011;8303;53.446;9.988;2022-08-21T14:56:25;96.03;;;90.93;;
16387;SDS011;8303;53.446;9.988;2022-08-21T14:58:52;98.40;;;93.25;;
16387;SDS011;8303;53.446;9.988;2022-08-21T15:01:21;70.60;;;66.78;;
16387;SDS011;8303;53.446;9.988;2022-08-21T15:03:48;67.18;;;63.38;;
16387;SDS011;8303;53.446;9.988;2022-08-21T15:06:16;84.43;;;80.10;;
16387;SDS011;8303;53.446;9.988;2022-08-21T15:08:45;65.97;;;62.28;;
16387;SDS011;8303;53.446;9.988;2022-08-21T15:11:12;61.63;;;58.20;;
16387;SDS011;8303;53.446;9.988;2022-08-21T15:13:43;106.43;;;100.85;;
16387;SDS011;8303;53.446;9.988;2022-08-21T15:16:11;85.50;;;81.05;;
16387;SDS011;8303;53.446;9.988;2022-08-21T15:18:38;64.78;;;60.78;;
16387;SDS011;8303;53.446;9.988;2022-08-21T15:21:06;59.10;;;55.60;;
16387;SDS011;8303;53.446;9.988;2022-08-21T15:23:33;84.93;;;80.53;;
16387;SDS011;8303;53.446;9.988;2022-08-21T15:26:00;107.70;;;102.15;;
16387;SDS011;8303;53.446;9.988;2022-08-21T15:28:27;67.90;;;63.90;;
16387;SDS011;8303;53.446;9.988;2022-08-21T15:30:56;79.82;;;75.53;;
16387;SDS011;8303;53.446;9.988;2022-08-21T15:33:23;77.88;;;73.60;;
16387;SDS011;8303;53.446;9.988;2022-08-21T15:35:49;79.78;;;75.57;;
16387;SDS011;8303;53.446;9.988;2022-08-21T15:38:16;61.97;;;58.58;;
16387;SDS011;8303;53.446;9.988;2022-08-21T15:40:43;65.57;;;62.08;;
16387;SDS011;8303;53.446;9.988;2022-08-21T15:43:13;52.63;;;49.58;;
16387;SDS011;8303;53.446;9.988;2022-08-21T15:45:47;50.30;;;47.30;;
16387;SDS011;8303;53.446;9.988;2022-08-21T15:48:15;45.72;;;43.22;;
16387;SDS011;8303;53.446;9.988;2022-08-21T15:50:42;48.40;;;45.60;;
16387;SDS011;8303;53.446;9.988;2022-08-21T15:53:09;47.25;;;44.53;;
16387;SDS011;8303;53.446;9.988;2022-08-21T15:55:36;47.05;;;44.45;;
16387;SDS011;8303;53.446;9.988;2022-08-21T15:58:03;53.22;;;50.15;;
16387;SDS011;8303;53.446;9.988;2022-08-21T16:00:31;53.85;;;50.95;;
16387;SDS011;8303;53.446;9.988;2022-08-21T16:03:00;52.17;;;49.28;;
16387;SDS011;8303;53.446;9.988;2022-08-21T16:05:30;53.40;;;50.55;;
16387;SDS011;8303;53.446;9.988;2022-08-21T16:07:58;51.17;;;48.20;;
16387;SDS011;8303;53.446;9.988;2022-08-21T16:10:25;49.00;;;46.33;;
16387;SDS011;8303;53.446;9.988;2022-08-21T16:12:53;46.50;;;43.78;;
16387;SDS011;8303;53.446;9.988;2022-08-21T16:15:23;75.65;;;71.32;;
16387;SDS011;8303;53.446;9.988;2022-08-21T16:17:51;103.13;;;97.70;;
16387;SDS011;8303;53.446;9.988;2022-08-21T16:20:19;93.72;;;88.80;;
16387;SDS011;8303;53.446;9.988;2022-08-21T16:22:50;83.82;;;79.40;;
16387;SDS011;8303;53.446;9.988;2022-08-21T16:25:17;103.93;;;98.43;;
16387;SDS011;8303;53.446;9.988;2022-08-21T16:27:46;109.13;;;103.43;;
16387;SDS011;8303;53.446;9.988;2022-08-21T16:30:16;77.97;;;73.90;;
16387;SDS011;8303;53.446;9.988;2022-08-21T16:32:45;74.85;;;70.80;;
16387;SDS011;8303;53.446;9.988;2022-08-21T16:35:14;65.85;;;62.28;;
16387;SDS011;8303;53.446;9.988;2022-08-21T16:37:42;80.65;;;76.32;;
16387;SDS011;8303;53.446;9.988;2022-08-21T16:40:11;89.88;;;85.05;;
16387;SDS011;8303;53.446;9.988;2022-08-21T16:42:39;83.72;;;79.25;;
16387;SDS011;8303;53.446;9.988;2022-08-21T16:45:08;98.57;;;93.47;;
16387;SDS011;8303;53.446;9.988;2022-08-21T16:47:37;78.53;;;74.32;;
16387;SDS011;8303;53.446;9.988;2022-08-21T16:50:04;96.82;;;91.70;;
16387;SDS011;8303;53.446;9.988;2022-08-21T16:52:32;86.65;;;82.20;;
16387;SDS011;8303;53.446;9.988;2022-08-21T16:54:59;70.30;;;66.53;;
16387;SDS011;8303;53.446;9.988;2022-08-21T16:57:27;79.60;;;75.25;;
16387;SDS011;8303;53.446;9.988;2022-08-21T16:59:54;80.25;;;76.00;;
16387;SDS011;8303;53.446;9.988;2022-08-21T17:02:24;81.15;;;76.93;;
16387;SDS011;8303;53.446;9.988;2022-08-21T17:04:54;54.75;;;51.60;;
16387;SDS011;8303;53.446;9.988;2022-08-21T17:07:21;70.35;;;66.30;;
16387;SDS011;8303;53.446;9.988;2022-08-21T17:09:49;83.32;;;78.90;;
16387;SDS011;8303;53.446;9.988;2022-08-21T17:12:15;87.35;;;82.85;;
16387;SDS011;8303;53.446;9.988;2022-08-21T17:14:47;90.95;;;86.05;;
16387;SDS011;8303;53.446;9.988;2022-08-21T17:17:14;82.20;;;77.85;;
16387;SDS011;8303;53.446;9.988;2022-08-21T17:19:42;77.00;;;72.88;;
16387;SDS011;8303;53.446;9.988;2022-08-21T17:22:09;67.28;;;63.50;;
16387;SDS011;8303;53.446;9.988;2022-08-21T17:24:36;70.72;;;66.93;;
16387;SDS011;8303;53.446;9.988;2022-08-21T17:27:03;43.03;;;40.30;;
16387;SDS011;8303;53.446;9.988;2022-08-21T17:29:33;53.75;;;50.25;;
16387;SDS011;8303;53.446;9.988;2022-08-21T17:32:04;55.72;;;52.65;;
16387;SDS011;8303;53.446;9.988;2022-08-21T17:34:35;37.72;;;35.42;;
16387;SDS011;8303;53.446;9.988;2022-08-21T17:37:03;34.22;;;31.98;;
16387;SDS011;8303;53.446;9.988;2022-08-21T17:39:31;30.98;;;29.17;;
16387;SDS011;8303;53.446;9.988;2022-08-21T17:41:59;32.30;;;29.90;;
16387;SDS011;8303;53.446;9.988;2022-08-21T17:44:29;29.40;;;27.65;;
16387;SDS011;8303;53.446;9.988;2022-08-21T17:46:56;32.28;;;30.55;;
16387;SDS011;8303;53.446;9.988;2022-08-21T17:49:24;31.88;;;30.02;;
16387;SDS011;8303;53.446;9.988;2022-08-21T17:51:51;31.38;;;29.45;;
16387;SDS011;8303;53.446;9.988;2022-08-21T17:54:18;25.92;;;24.23;;
16387;SDS011;8303;53.446;9.988;2022-08-21T17:56:45;22.83;;;21.45;;
16387;SDS011;8303;53.446;9.988;2022-08-21T17:59:12;16.63;;;15.60;;
16387;SDS011;8303;53.446;9.988;2022-08-21T18:01:41;13.68;;;12.75;;
16387;SDS011;8303;53.446;9.988;2022-08-21T18:04:11;10.63;;;9.82;;
16387;SDS011;8303;53.446;9.988;2022-08-21T18:06:39;9.20;;;8.45;;
16387;SDS011;8303;53.446;9.988;2022-08-21T18:09:07;8.57;;;7.88;;
16387;SDS011;8303;53.446;9.988;2022-08-21T18:11:34;7.57;;;6.88;;
16387;SDS011;8303;53.446;9.988;2022-08-21T18:14:02;7.60;;;7.00;;
16387;SDS011;8303;53.446;9.988;2022-08-21T18:16:31;6.40;;;5.90;;
16387;SDS011;8303;53.446;9.988;2022-08-21T18:19:00;5.07;;;4.32;;
16387;SDS011;8303;53.446;9.988;2022-08-21T18:21:30;5.63;;;4.22;;
16387;SDS011;8303;53.446;9.988;2022-08-21T18:23:58;5.55;;;3.70;;
16387;SDS011;8303;53.446;9.988;2022-08-21T18:26:26;4.22;;;3.63;;
16387;SDS011;8303;53.446;9.988;2022-08-21T18:28:55;7.68;;;4.40;;
16387;SDS011;8303;53.446;9.988;2022-08-21T18:31:24;7.75;;;4.70;;
16387;SDS011;8303;53.446;9.988;2022-08-21T18:33:52;6.00;;;4.55;;
16387;SDS011;8303;53.446;9.988;2022-08-21T18:36:20;7.05;;;4.80;;
16387;SDS011;8303;53.446;9.988;2022-08-21T18:38:47;7.90;;;5.07;;
16387;SDS011;8303;53.446;9.988;2022-08-21T18:41:15;13.65;;;6.70;;
16387;SDS011;8303;53.446;9.988;2022-08-21T18:43:42;8.13;;;6.07;;
16387;SDS011;8303;53.446;9.988;2022-08-21T18:46:09;9.68;;;8.82;;
16387;SDS011;8303;53.446;9.988;2022-08-21T18:48:36;17.00;;;14.00;;
16387;SDS011;8303;53.446;9.988;2022-08-21T18:51:04;15.70;;;14.27;;
16387;SDS011;8303;53.446;9.988;2022-08-21T18:53:31;16.23;;;14.95;;
16387;SDS011;8303;53.446;9.988;2022-08-21T18:55:58;24.33;;;22.65;;
16387;SDS011;8303;53.446;9.988;2022-08-21T18:58:26;29.50;;;27.50;;
16387;SDS011;8303;53.446;9.988;2022-08-21T19:00:53;39.78;;;36.80;;
16387;SDS011;8303;53.446;9.988;2022-08-21T19:03:21;43.53;;;40.92;;
16387;SDS011;8303;53.446;9.988;2022-08-21T19:05:49;47.70;;;44.58;;
16387;SDS011;8303;53.446;9.988;2022-08-21T19:08:18;44.72;;;41.55;;
16387;SDS011;8303;53.446;9.988;2022-08-21T19:10:46;50.90;;;47.33;;
16387;SDS011;8303;53.446;9.988;2022-08-21T19:13:15;52.17;;;48.92;;
16387;SDS011;8303;53.446;9.988;2022-08-21T19:15:46;44.90;;;42.20;;
16387;SDS011;8303;53.446;9.988;2022-08-21T19:18:17;45.80;;;42.85;;
16387;SDS011;8303;53.446;9.988;2022-08-21T19:20:45;44.45;;;41.72;;
16387;SDS011;8303;53.446;9.988;2022-08-21T19:23:12;48.20;;;44.90;;
16387;SDS011;8303;53.446;9.988;2022-08-21T19:25:42;53.38;;;49.83;;
16387;SDS011;8303;53.446;9.988;2022-08-21T19:28:11;53.20;;;49.83;;
16387;SDS011;8303;53.446;9.988;2022-08-21T19:30:43;47.97;;;44.90;;
16387;SDS011;8303;53.446;9.988;2022-08-21T19:33:18;52.03;;;48.40;;
16387;SDS011;8303;53.446;9.988;2022-08-21T19:35:48;55.00;;;51.63;;
16387;SDS011;8303;53.446;9.988;2022-08-21T19:38:15;53.10;;;49.83;;
16387;SDS011;8303;53.446;9.988;2022-08-21T19:40:42;54.75;;;51.17;;
16387;SDS011;8303;53.446;9.988;2022-08-21T19:43:09;50.90;;;47.53;;
16387;SDS011;8303;53.446;9.988;2022-08-21T19:45:36;49.00;;;45.63;;
16387;SDS011;8303;53.446;9.988;2022-08-21T19:48:04;49.70;;;46.22;;